sensor_id;sensor_type;location;lat;lon;timestamp;pressure;altitude;pressure_sealevel;temperature;humidity
69402;BME280;56589;51.992;5.924;2023-12-20T00:01:49;100949.19;;;5.22;95.30
69402;BME280;56589;51.992;5.924;2023-12-20T00:04:18;100940.47;;;5.23;95.16
69402;BME280;56589;51.992;5.924;2023-12-20T00:06:43;100942.28;;;5.21;95.16
69402;BME280;56589;51.992;5.924;2023-12-20T00:09:09;100934.50;;;5.21;94.78
69402;BME280;56589;51.992;5.924;2023-12-20T00:11:35;100938.94;;;5.17;94.86
69402;BME280;56589;51.992;5.924;2023-12-20T00:14:01;100933.91;;;5.12;94.96
69402;BME280;56589;51.992;5.924;2023-12-20T00:16:26;100950.50;;;5.10;95.00
69402;BME280;56589;51.992;5.924;2023-12-20T00:18:52;100942.78;;;5.08;94.62
69402;BME280;56589;51.992;5.924;2023-12-20T00:21:20;100942.78;;;5.08;95.16
69402;BME280;56589;51.992;5.924;2023-12-20T00:23:46;100944.53;;;5.08;94.75
69402;BME280;56589;51.992;5.924;2023-12-20T00:26:12;100942.63;;;5.11;95.11
69402;BME280;56589;51.992;5.924;2023-12-20T00:28:38;100939.03;;;5.15;95.21
69402;BME280;56589;51.992;5.924;2023-12-20T00:31:04;100931.91;;;5.19;95.70
69402;BME280;56589;51.992;5.924;2023-12-20T00:33:29;100927.56;;;5.19;95.32
69402;BME280;56589;51.992;5.924;2023-12-20T00:35:55;100926.78;;;5.17;95.21
69402;BME280;56589;51.992;5.924;2023-12-20T00:38:23;100928.72;;;5.12;94.97
69402;BME280;56589;51.992;5.924;2023-12-20T00:40:49;100931.44;;;5.09;94.84
69402;BME280;56589;51.992;5.924;2023-12-20T00:43:15;100933.25;;;5.07;95.00
69402;BME280;56589;51.992;5.924;2023-12-20T00:45:41;100942.88;;;5.05;94.76
69402;BME280;56589;51.992;5.924;2023-12-20T00:48:07;100927.41;;;5.02;94.96
69402;BME280;56589;51.992;5.924;2023-12-20T00:50:33;100939.66;;;4.99;94.43
69402;BME280;56589;51.992;5.924;2023-12-20T00:52:59;100939.81;;;4.96;94.93
69402;BME280;56589;51.992;5.924;2023-12-20T00:55:27;100939.91;;;4.92;94.81
69402;BME280;56589;51.992;5.924;2023-12-20T00:57:53;100932.19;;;4.89;94.80
69402;BME280;56589;51.992;5.924;2023-12-20T01:00:19;100934.84;;;4.88;94.95
69402;BME280;56589;51.992;5.924;2023-12-20T01:02:45;100934.97;;;4.85;94.68
69402;BME280;56589;51.992;5.924;2023-12-20T01:05:11;100930.72;;;4.82;94.51
69402;BME280;56589;51.992;5.924;2023-12-20T01:07:37;100934.22;;;4.81;94.91
69402;BME280;56589;51.992;5.924;2023-12-20T01:10:03;100939.56;;;4.78;94.54
69402;BME280;56589;51.992;5.924;2023-12-20T01:12:32;100944.84;;;4.75;94.77
69402;BME280;56589;51.992;5.924;2023-12-20T01:14:57;100936.19;;;4.75;94.48
69402;BME280;56589;51.992;5.924;2023-12-20T01:17:23;100928.53;;;4.72;94.81
69402;BME280;56589;51.992;5.924;2023-12-20T01:19:49;100923.38;;;4.70;94.60
69402;BME280;56589;51.992;5.924;2023-12-20T01:22:15;100935.53;;;4.70;94.80
69402;BME280;56589;51.992;5.924;2023-12-20T01:24:40;100938.25;;;4.66;95.03
69402;BME280;56589;51.992;5.924;2023-12-20T01:27:06;100944.31;;;4.67;95.19
69402;BME280;56589;51.992;5.924;2023-12-20T01:29:34;100934.75;;;4.68;95.01
69402;BME280;56589;51.992;5.924;2023-12-20T01:32:00;100927.78;;;4.68;95.03
69402;BME280;56589;51.992;5.924;2023-12-20T01:34:26;100927.84;;;4.66;94.80
69402;BME280;56589;51.992;5.924;2023-12-20T01:36:52;100927.91;;;4.65;94.94
69402;BME280;56589;51.992;5.924;2023-12-20T01:39:18;100936.59;;;4.64;94.71
69402;BME280;56589;51.992;5.924;2023-12-20T01:41:43;100930.63;;;4.62;94.89
69402;BME280;56589;51.992;5.924;2023-12-20T01:44:09;100937.56;;;4.61;94.55
69402;BME280;56589;51.992;5.924;2023-12-20T01:46:38;100926.41;;;4.58;94.92
69402;BME280;56589;51.992;5.924;2023-12-20T01:49:04;100928.25;;;4.56;95.03
69402;BME280;56589;51.992;5.924;2023-12-20T01:51:30;100931.75;;;4.55;94.60
69402;BME280;56589;51.992;5.924;2023-12-20T01:53:57;100936.16;;;4.53;94.71
69402;BME280;56589;51.992;5.924;2023-12-20T01:56:25;100936.94;;;4.55;95.00
69402;BME280;56589;51.992;5.924;2023-12-20T01:58:54;100937.00;;;4.53;94.95
69402;BME280;56589;51.992;5.924;2023-12-20T02:01:22;100937.03;;;4.52;94.96
69402;BME280;56589;51.992;5.924;2023-12-20T02:03:51;100924.84;;;4.54;95.29
69402;BME280;56589;51.992;5.924;2023-12-20T02:06:18;100932.59;;;4.55;95.02
69402;BME280;56589;51.992;5.924;2023-12-20T02:08:47;100930.75;;;4.59;95.47
69402;BME280;56589;51.992;5.924;2023-12-20T02:11:14;100935.88;;;4.60;95.07
69402;BME280;56589;51.992;5.924;2023-12-20T02:13:39;100930.69;;;4.60;94.96
69402;BME280;56589;51.992;5.924;2023-12-20T02:16:05;100935.94;;;4.59;95.01
69402;BME280;56589;51.992;5.924;2023-12-20T02:18:31;100939.31;;;4.61;95.01
69402;BME280;56589;51.992;5.924;2023-12-20T02:21:00;100948.81;;;4.62;95.12
69402;BME280;56589;51.992;5.924;2023-12-20T02:23:28;100941.94;;;4.61;95.16
69402;BME280;56589;51.992;5.924;2023-12-20T02:25:54;100934.91;;;4.63;95.07
69402;BME280;56589;51.992;5.924;2023-12-20T02:28:21;100932.38;;;4.61;94.73
69402;BME280;56589;51.992;5.924;2023-12-20T02:30:47;100932.38;;;4.61;95.07
69402;BME280;56589;51.992;5.924;2023-12-20T02:33:14;100937.50;;;4.63;94.99
69402;BME280;56589;51.992;5.924;2023-12-20T02:35:41;100938.31;;;4.65;95.53
69402;BME280;56589;51.992;5.924;2023-12-20T02:38:06;100931.16;;;4.70;95.30
69402;BME280;56589;51.992;5.924;2023-12-20T02:40:35;100929.38;;;4.72;95.51
69402;BME280;56589;51.992;5.924;2023-12-20T02:43:00;100932.75;;;4.74;95.22
69402;BME280;56589;51.992;5.924;2023-12-20T02:45:26;100924.03;;;4.75;95.27
69402;BME280;56589;51.992;5.924;2023-12-20T02:47:52;100924.88;;;4.76;95.44
69402;BME280;56589;51.992;5.924;2023-12-20T02:50:18;100902.31;;;4.76;95.15
69402;BME280;56589;51.992;5.924;2023-12-20T02:52:44;100901.44;;;4.77;95.25
69402;BME280;56589;51.992;5.924;2023-12-20T02:55:11;100903.91;;;4.80;95.66
69402;BME280;56589;51.992;5.924;2023-12-20T02:57:39;100900.41;;;4.81;95.59
69402;BME280;56589;51.992;5.924;2023-12-20T03:00:06;100899.38;;;4.85;95.48
69402;BME280;56589;51.992;5.924;2023-12-20T03:02:33;100899.25;;;4.88;95.91
69402;BME280;56589;51.992;5.924;2023-12-20T03:04:59;100898.34;;;4.91;95.61
69402;BME280;56589;51.992;5.924;2023-12-20T03:07:24;100901.72;;;4.93;95.83
69402;BME280;56589;51.992;5.924;2023-12-20T03:09:50;100907.78;;;4.93;95.48
69402;BME280;56589;51.992;5.924;2023-12-20T03:12:16;100902.56;;;4.93;95.34
69402;BME280;56589;51.992;5.924;2023-12-20T03:14:44;100899.97;;;4.93;95.28
69402;BME280;56589;51.992;5.924;2023-12-20T03:17:10;100899.03;;;4.95;95.55
69402;BME280;56589;51.992;5.924;2023-12-20T03:19:36;100892.16;;;4.93;95.03
69402;BME280;56589;51.992;5.924;2023-12-20T03:22:02;100889.66;;;4.90;95.07
69402;BME280;56589;51.992;5.924;2023-12-20T03:24:28;100888.97;;;4.85;94.68
69402;BME280;56589;51.992;5.924;2023-12-20T03:26:54;100896.03;;;4.82;94.75
69402;BME280;56589;51.992;5.924;2023-12-20T03:29:20;100886.56;;;4.81;95.25
69402;BME280;56589;51.992;5.924;2023-12-20T03:31:48;100884.94;;;4.78;94.90
69402;BME280;56589;51.992;5.924;2023-12-20T03:34:14;100878.91;;;4.76;94.66
69402;BME280;56589;51.992;5.924;2023-12-20T03:36:40;100873.84;;;4.73;94.82
69402;BME280;56589;51.992;5.924;2023-12-20T03:39:05;100876.50;;;4.72;94.77
69402;BME280;56589;51.992;5.924;2023-12-20T03:41:31;100871.34;;;4.70;95.06
69402;BME280;56589;51.992;5.924;2023-12-20T03:43:57;100867.06;;;4.69;94.95
69402;BME280;56589;51.992;5.924;2023-12-20T03:46:23;100879.16;;;4.70;95.30
69402;BME280;56589;51.992;5.924;2023-12-20T03:48:51;100872.25;;;4.69;95.28
69402;BME280;56589;51.992;5.924;2023-12-20T03:51:17;100874.78;;;4.71;94.87
69402;BME280;56589;51.992;5.924;2023-12-20T03:53:42;100877.47;;;4.69;95.01
69402;BME280;56589;51.992;5.924;2023-12-20T03:56:08;100880.97;;;4.68;94.71
69402;BME280;56589;51.992;5.924;2023-12-20T03:58:34;100886.25;;;4.66;94.60
69402;BME280;56589;51.992;5.924;2023-12-20T04:01:00;100883.72;;;4.65;95.18
69402;BME280;56589;51.992;5.924;2023-12-20T04:03:26;100876.78;;;4.64;95.18
69402;BME280;56589;51.992;5.924;2023-12-20T04:05:54;100878.50;;;4.65;95.19
69402;BME280;56589;51.992;5.924;2023-12-20T04:08:20;100869.72;;;4.68;95.19
69402;BME280;56589;51.992;5.924;2023-12-20T04:10:46;100869.66;;;4.69;95.28
69402;BME280;56589;51.992;5.924;2023-12-20T04:13:11;100876.50;;;4.72;95.64
69402;BME280;56589;51.992;5.924;2023-12-20T04:15:37;100875.69;;;4.71;95.38
69402;BME280;56589;51.992;5.924;2023-12-20T04:18:03;100889.44;;;4.73;95.33
69402;BME280;56589;51.992;5.924;2023-12-20T04:20:29;100875.53;;;4.74;95.52
69402;BME280;56589;51.992;5.924;2023-12-20T04:22:58;100880.56;;;4.79;95.67
69402;BME280;56589;51.992;5.924;2023-12-20T04:25:24;100881.28;;;4.82;95.39
69402;BME280;56589;51.992;5.924;2023-12-20T04:27:49;100873.44;;;4.84;95.58
69402;BME280;56589;51.992;5.924;2023-12-20T04:30:15;100870.88;;;4.82;95.50
69402;BME280;56589;51.992;5.924;2023-12-20T04:32:41;100873.47;;;4.82;95.13
69402;BME280;56589;51.992;5.924;2023-12-20T04:35:07;100871.72;;;4.83;95.04
69402;BME280;56589;51.992;5.924;2023-12-20T04:37:32;100875.97;;;4.85;95.70
69402;BME280;56589;51.992;5.924;2023-12-20T04:40:01;100885.38;;;4.89;95.73
69402;BME280;56589;51.992;5.924;2023-12-20T04:42:27;100880.91;;;4.93;95.65
69402;BME280;56589;51.992;5.924;2023-12-20T04:44:53;100866.88;;;4.97;95.45
69402;BME280;56589;51.992;5.924;2023-12-20T04:47:18;100877.16;;;5.00;95.51
69402;BME280;56589;51.992;5.924;2023-12-20T04:49:44;100874.50;;;5.02;95.58
69402;BME280;56589;51.992;5.924;2023-12-20T04:52:10;100872.69;;;5.04;95.50
69402;BME280;56589;51.992;5.924;2023-12-20T04:54:36;100869.09;;;5.06;95.39
69402;BME280;56589;51.992;5.924;2023-12-20T04:57:04;100882.78;;;5.11;95.63
69402;BME280;56589;51.992;5.924;2023-12-20T04:59:30;100874.06;;;5.12;95.57
69402;BME280;56589;51.992;5.924;2023-12-20T05:01:56;100876.50;;;5.17;95.63
69402;BME280;56589;51.992;5.924;2023-12-20T05:04:22;100867.69;;;5.19;95.44
69402;BME280;56589;51.992;5.924;2023-12-20T05:06:48;100871.03;;;5.23;95.57
69402;BME280;56589;51.992;5.924;2023-12-20T05:09:13;100867.34;;;5.29;95.46
69402;BME280;56589;51.992;5.924;2023-12-20T05:11:39;100864.66;;;5.30;95.52
69402;BME280;56589;51.992;5.924;2023-12-20T05:14:07;100848.97;;;5.32;95.13
69402;BME280;56589;51.992;5.924;2023-12-20T05:16:33;100848.97;;;5.32;95.30
69402;BME280;56589;51.992;5.924;2023-12-20T05:18:59;100848.88;;;5.35;95.47
69402;BME280;56589;51.992;5.924;2023-12-20T05:21:25;100844.44;;;5.37;95.04
69402;BME280;56589;51.992;5.924;2023-12-20T05:23:51;100844.38;;;5.38;95.62
69402;BME280;56589;51.992;5.924;2023-12-20T05:26:16;100840.78;;;5.41;95.05
69402;BME280;56589;51.992;5.924;2023-12-20T05:28:42;100845.03;;;5.43;95.35
69402;BME280;56589;51.992;5.924;2023-12-20T05:31:10;100846.66;;;5.46;95.38
69402;BME280;56589;51.992;5.924;2023-12-20T05:33:36;100848.28;;;5.49;95.18
69402;BME280;56589;51.992;5.924;2023-12-20T05:36:03;100856.91;;;5.51;94.99
69402;BME280;56589;51.992;5.924;2023-12-20T05:38:29;100841.13;;;5.54;95.01
69402;BME280;56589;51.992;5.924;2023-12-20T05:40:55;100854.06;;;5.55;94.86
69402;BME280;56589;51.992;5.924;2023-12-20T05:43:20;100859.16;;;5.58;94.93
69402;BME280;56589;51.992;5.924;2023-12-20T05:45:46;100853.06;;;5.59;94.63
69402;BME280;56589;51.992;5.924;2023-12-20T05:48:15;100863.31;;;5.62;95.00
69402;BME280;56589;51.992;5.924;2023-12-20T05:50:40;100869.34;;;5.64;95.01
69402;BME280;56589;51.992;5.924;2023-12-20T05:53:06;100866.66;;;5.66;94.59
69402;BME280;56589;51.992;5.924;2023-12-20T05:55:32;100868.28;;;5.68;94.31
69402;BME280;56589;51.992;5.924;2023-12-20T05:57:58;100869.13;;;5.69;94.41
69402;BME280;56589;51.992;5.924;2023-12-20T06:00:23;100873.44;;;5.70;94.48
69402;BME280;56589;51.992;5.924;2023-12-20T06:02:51;100873.38;;;5.71;94.38
69402;BME280;56589;51.992;5.924;2023-12-20T06:05:19;100879.28;;;5.75;94.33
69402;BME280;56589;51.992;5.924;2023-12-20T06:07:45;100882.78;;;5.74;94.26
69402;BME280;56589;51.992;5.924;2023-12-20T06:10:11;100871.47;;;5.75;94.49
69402;BME280;56589;51.992;5.924;2023-12-20T06:12:37;100872.25;;;5.77;94.04
69402;BME280;56589;51.992;5.924;2023-12-20T06:15:03;100866.22;;;5.77;94.28
69402;BME280;56589;51.992;5.924;2023-12-20T06:17:29;100867.81;;;5.79;94.10
69402;BME280;56589;51.992;5.924;2023-12-20T06:19:55;100866.06;;;5.80;94.18
69402;BME280;56589;51.992;5.924;2023-12-20T06:22:23;100865.97;;;5.81;94.15
69402;BME280;56589;51.992;5.924;2023-12-20T06:24:49;100870.31;;;5.82;93.67
69402;BME280;56589;51.992;5.924;2023-12-20T06:27:17;100865.88;;;5.84;93.65
69402;BME280;56589;51.992;5.924;2023-12-20T06:29:43;100863.25;;;5.84;93.84
69402;BME280;56589;51.992;5.924;2023-12-20T06:32:08;100869.25;;;5.86;93.97
69402;BME280;56589;51.992;5.924;2023-12-20T06:34:34;100861.44;;;5.86;93.65
69402;BME280;56589;51.992;5.924;2023-12-20T06:37:00;100858.81;;;5.86;93.38
69402;BME280;56589;51.992;5.924;2023-12-20T06:39:28;100855.38;;;5.86;93.75
69402;BME280;56589;51.992;5.924;2023-12-20T06:41:54;100864.88;;;5.87;93.77
69402;BME280;56589;51.992;5.924;2023-12-20T06:44:20;100850.09;;;5.87;93.59
69402;BME280;56589;51.992;5.924;2023-12-20T06:46:45;100848.41;;;5.86;93.08
69402;BME280;56589;51.992;5.924;2023-12-20T06:49:11;100855.28;;;5.87;93.15
69402;BME280;56589;51.992;5.924;2023-12-20T06:51:37;100850.16;;;5.86;92.99
69402;BME280;56589;51.992;5.924;2023-12-20T06:54:03;100851.00;;;5.86;93.29
69402;BME280;56589;51.992;5.924;2023-12-20T06:56:31;100850.09;;;5.87;93.19
69402;BME280;56589;51.992;5.924;2023-12-20T06:58:57;100845.75;;;5.88;92.96
69402;BME280;56589;51.992;5.924;2023-12-20T07:01:23;100842.16;;;5.90;92.69
69402;BME280;56589;51.992;5.924;2023-12-20T07:03:49;100849.06;;;5.91;93.16
69402;BME280;56589;51.992;5.924;2023-12-20T07:06:14;100839.47;;;5.92;92.60
69402;BME280;56589;51.992;5.924;2023-12-20T07:08:40;100834.25;;;5.92;92.64
69402;BME280;56589;51.992;5.924;2023-12-20T07:11:06;100831.66;;;5.92;92.49
69402;BME280;56589;51.992;5.924;2023-12-20T07:13:34;100838.63;;;5.91;92.46
69402;BME280;56589;51.992;5.924;2023-12-20T07:16:00;100835.94;;;5.93;92.80
69402;BME280;56589;51.992;5.924;2023-12-20T07:18:26;100842.06;;;5.92;92.18
69402;BME280;56589;51.992;5.924;2023-12-20T07:20:52;100831.66;;;5.92;92.13
69402;BME280;56589;51.992;5.924;2023-12-20T07:23:18;100837.72;;;5.92;92.48
69402;BME280;56589;51.992;5.924;2023-12-20T07:25:44;100835.94;;;5.93;92.40
69402;BME280;56589;51.992;5.924;2023-12-20T07:28:09;100844.59;;;5.93;92.18
69402;BME280;56589;51.992;5.924;2023-12-20T07:30:38;100834.19;;;5.93;92.11
69402;BME280;56589;51.992;5.924;2023-12-20T07:33:04;100836.75;;;5.95;91.95
69402;BME280;56589;51.992;5.924;2023-12-20T07:35:30;100843.66;;;5.96;92.11
69402;BME280;56589;51.992;5.924;2023-12-20T07:37:56;100839.28;;;5.96;92.17
69402;BME280;56589;51.992;5.924;2023-12-20T07:40:22;100840.97;;;5.97;92.34
69402;BME280;56589;51.992;5.924;2023-12-20T07:42:47;100840.03;;;5.98;92.24
69402;BME280;56589;51.992;5.924;2023-12-20T07:45:13;100835.75;;;5.97;91.98
69402;BME280;56589;51.992;5.924;2023-12-20T07:47:42;100830.47;;;5.99;92.17
69402;BME280;56589;51.992;5.924;2023-12-20T07:50:08;100835.63;;;6.00;91.94
69402;BME280;56589;51.992;5.924;2023-12-20T07:52:33;100838.16;;;6.02;91.81
69402;BME280;56589;51.992;5.924;2023-12-20T07:54:59;100835.47;;;6.04;92.16
69402;BME280;56589;51.992;5.924;2023-12-20T07:57:28;100839.78;;;6.05;92.00
69402;BME280;56589;51.992;5.924;2023-12-20T07:59:54;100848.44;;;6.05;92.12
69402;BME280;56589;51.992;5.924;2023-12-20T08:02:20;100852.69;;;6.08;92.01
69402;BME280;56589;51.992;5.924;2023-12-20T08:04:48;100861.28;;;6.10;92.03
69402;BME280;56589;51.992;5.924;2023-12-20T08:07:14;100856.84;;;6.12;92.00
69402;BME280;56589;51.992;5.924;2023-12-20T08:09:40;100867.13;;;6.15;91.51
69402;BME280;56589;51.992;5.924;2023-12-20T08:12:06;100860.16;;;6.15;91.88
69402;BME280;56589;51.992;5.924;2023-12-20T08:14:32;100866.97;;;6.18;91.64
69402;BME280;56589;51.992;5.924;2023-12-20T08:16:58;100862.56;;;6.20;91.45
69402;BME280;56589;51.992;5.924;2023-12-20T08:19:24;100864.25;;;6.21;91.34
69402;BME280;56589;51.992;5.924;2023-12-20T08:21:52;100868.47;;;6.23;91.51
69402;BME280;56589;51.992;5.924;2023-12-20T08:24:18;100856.28;;;6.24;91.68
69402;BME280;56589;51.992;5.924;2023-12-20T08:26:44;100855.41;;;6.25;91.63
69402;BME280;56589;51.992;5.924;2023-12-20T08:29:09;100860.44;;;6.28;91.35
69402;BME280;56589;51.992;5.924;2023-12-20T08:31:37;100857.78;;;6.30;91.22
69402;BME280;56589;51.992;5.924;2023-12-20T08:34:03;100842.94;;;6.32;91.48
69402;BME280;56589;51.992;5.924;2023-12-20T08:36:29;100843.78;;;6.32;91.39
69402;BME280;56589;51.992;5.924;2023-12-20T08:38:57;100843.78;;;6.32;91.06
69402;BME280;56589;51.992;5.924;2023-12-20T08:41:23;100841.00;;;6.35;90.99
69402;BME280;56589;51.992;5.924;2023-12-20T08:43:49;100840.97;;;6.37;91.21
69402;BME280;56589;51.992;5.924;2023-12-20T08:46:15;100836.50;;;6.39;91.18
69402;BME280;56589;51.992;5.924;2023-12-20T08:48:40;100836.44;;;6.40;91.12
69402;BME280;56589;51.992;5.924;2023-12-20T08:51:06;100832.91;;;6.41;91.13
69402;BME280;56589;51.992;5.924;2023-12-20T08:53:32;100827.69;;;6.41;90.99
69402;BME280;56589;51.992;5.924;2023-12-20T08:56:00;100831.09;;;6.43;91.24
69402;BME280;56589;51.992;5.924;2023-12-20T08:58:26;100828.47;;;6.43;91.21
69402;BME280;56589;51.992;5.924;2023-12-20T09:00:52;100822.41;;;6.43;91.11
69402;BME280;56589;51.992;5.924;2023-12-20T09:03:18;100823.25;;;6.43;91.16
69402;BME280;56589;51.992;5.924;2023-12-20T09:05:43;100825.03;;;6.43;91.35
69402;BME280;56589;51.992;5.924;2023-12-20T09:08:09;100825.03;;;6.43;91.09
69402;BME280;56589;51.992;5.924;2023-12-20T09:10:35;100825.03;;;6.43;91.43
69402;BME280;56589;51.992;5.924;2023-12-20T09:13:03;100829.38;;;6.42;90.92
69402;BME280;56589;51.992;5.924;2023-12-20T09:15:29;100831.97;;;6.42;91.45
69402;BME280;56589;51.992;5.924;2023-12-20T09:17:55;100831.09;;;6.43;91.21
69402;BME280;56589;51.992;5.924;2023-12-20T09:20:21;100821.50;;;6.44;91.17
69402;BME280;56589;51.992;5.924;2023-12-20T09:22:47;100830.16;;;6.44;91.23
69402;BME280;56589;51.992;5.924;2023-12-20T09:25:13;100829.31;;;6.44;91.14
69402;BME280;56589;51.992;5.924;2023-12-20T09:27:39;100834.53;;;6.44;91.48
69402;BME280;56589;51.992;5.924;2023-12-20T09:30:08;100826.75;;;6.42;91.26
69402;BME280;56589;51.992;5.924;2023-12-20T09:32:34;100829.38;;;6.42;91.73
69402;BME280;56589;51.992;5.924;2023-12-20T09:35:00;100836.34;;;6.42;91.90
69402;BME280;56589;51.992;5.924;2023-12-20T09:37:26;100839.88;;;6.41;91.88
69402;BME280;56589;51.992;5.924;2023-12-20T09:39:52;100839.03;;;6.40;91.98
69402;BME280;56589;51.992;5.924;2023-12-20T09:42:23;100839.97;;;6.39;91.85
69402;BME280;56589;51.992;5.924;2023-12-20T09:44:55;100840.81;;;6.40;91.86
69402;BME280;56589;51.992;5.924;2023-12-20T09:47:28;100829.53;;;6.39;92.01
69402;BME280;56589;51.992;5.924;2023-12-20T09:49:55;100830.38;;;6.40;92.01
69402;BME280;56589;51.992;5.924;2023-12-20T09:52:23;100832.97;;;6.40;92.26
69402;BME280;56589;51.992;5.924;2023-12-20T09:54:50;100830.44;;;6.38;92.17
69402;BME280;56589;51.992;5.924;2023-12-20T09:57:18;100837.44;;;6.38;92.17
69402;BME280;56589;51.992;5.924;2023-12-20T09:59:44;100836.44;;;6.40;92.33
69402;BME280;56589;51.992;5.924;2023-12-20T10:02:13;100831.13;;;6.42;92.74
69402;BME280;56589;51.992;5.924;2023-12-20T10:04:46;100838.06;;;6.43;92.64
69402;BME280;56589;51.992;5.924;2023-12-20T10:07:12;100840.69;;;6.43;92.48
69402;BME280;56589;51.992;5.924;2023-12-20T10:09:38;100844.13;;;6.43;92.23
69402;BME280;56589;51.992;5.924;2023-12-20T10:12:06;100857.16;;;6.43;92.58
69402;BME280;56589;51.992;5.924;2023-12-20T10:14:32;100846.56;;;6.46;92.56
69402;BME280;56589;51.992;5.924;2023-12-20T10:17:02;100853.34;;;6.50;92.58
69402;BME280;56589;51.992;5.924;2023-12-20T10:19:28;100853.28;;;6.52;92.56
69402;BME280;56589;51.992;5.924;2023-12-20T10:21:57;100859.25;;;6.54;92.25
69402;BME280;56589;51.992;5.924;2023-12-20T10:24:24;100860.09;;;6.54;92.36
69402;BME280;56589;51.992;5.924;2023-12-20T10:27:01;100864.28;;;6.59;92.54
69402;BME280;56589;51.992;5.924;2023-12-20T10:29:27;100858.13;;;6.60;92.72
69402;BME280;56589;51.992;5.924;2023-12-20T10:31:53;100855.31;;;6.64;92.74
69402;BME280;56589;51.992;5.924;2023-12-20T10:34:19;100845.53;;;6.69;92.61
69402;BME280;56589;51.992;5.924;2023-12-20T10:36:44;100846.19;;;6.73;92.46
69402;BME280;56589;51.992;5.924;2023-12-20T10:39:14;100833.88;;;6.76;92.34
69402;BME280;56589;51.992;5.924;2023-12-20T10:41:41;100830.34;;;6.77;92.42
69402;BME280;56589;51.992;5.924;2023-12-20T10:44:10;100837.13;;;6.81;92.64
69402;BME280;56589;51.992;5.924;2023-12-20T10:46:37;100826.59;;;6.83;92.20
69402;BME280;56589;51.992;5.924;2023-12-20T10:49:05;100824.75;;;6.85;92.04
69402;BME280;56589;51.992;5.924;2023-12-20T10:51:34;100823.91;;;6.85;92.03
69402;BME280;56589;51.992;5.924;2023-12-20T10:54:02;100828.16;;;6.87;92.29
69402;BME280;56589;51.992;5.924;2023-12-20T10:56:32;100829.75;;;6.90;91.67
69402;BME280;56589;51.992;5.924;2023-12-20T10:59:01;100821.06;;;6.89;92.16
69402;BME280;56589;51.992;5.924;2023-12-20T11:01:28;100819.19;;;6.93;92.43
69402;BME280;56589;51.992;5.924;2023-12-20T11:03:55;100816.50;;;6.94;92.45
69402;BME280;56589;51.992;5.924;2023-12-20T11:06:29;100818.09;;;6.97;92.14
69402;BME280;56589;51.992;5.924;2023-12-20T11:09:10;100817.13;;;6.99;92.41
69402;BME280;56589;51.992;5.924;2023-12-20T11:11:55;100812.56;;;7.03;92.28
69402;BME280;56589;51.992;5.924;2023-12-20T11:14:34;100809.00;;;7.05;92.39
69402;BME280;56589;51.992;5.924;2023-12-20T11:17:08;100813.13;;;7.09;92.61
69402;BME280;56589;51.992;5.924;2023-12-20T11:19:38;100812.91;;;7.14;92.54
69402;BME280;56589;51.992;5.924;2023-12-20T11:22:30;100811.97;;;7.15;92.12
69402;BME280;56589;51.992;5.924;2023-12-20T11:24:59;100798.06;;;7.15;92.30
69402;BME280;56589;51.992;5.924;2023-12-20T11:27:32;100793.69;;;7.15;92.49
69402;BME280;56589;51.992;5.924;2023-12-20T11:29:58;100785.94;;;7.14;92.35
69402;BME280;56589;51.992;5.924;2023-12-20T11:32:30;100783.19;;;7.17;92.17
69402;BME280;56589;51.992;5.924;2023-12-20T11:34:58;100784.88;;;7.18;92.42
69402;BME280;56589;51.992;5.924;2023-12-20T11:37:28;100783.88;;;7.20;92.22
69402;BME280;56589;51.992;5.924;2023-12-20T11:39:55;100775.13;;;7.21;92.65
69402;BME280;56589;51.992;5.924;2023-12-20T11:42:22;100775.81;;;7.25;92.49
69402;BME280;56589;51.992;5.924;2023-12-20T11:44:50;100771.34;;;7.27;92.38
69402;BME280;56589;51.992;5.924;2023-12-20T11:47:16;100775.50;;;7.31;92.11
69402;BME280;56589;51.992;5.924;2023-12-20T11:49:42;100780.66;;;7.32;92.24
69402;BME280;56589;51.992;5.924;2023-12-20T11:52:08;100776.16;;;7.36;92.11
69402;BME280;56589;51.992;5.924;2023-12-20T11:54:33;100788.97;;;7.41;92.52
69402;BME280;56589;51.992;5.924;2023-12-20T11:56:59;100788.72;;;7.45;92.18
69402;BME280;56589;51.992;5.924;2023-12-20T11:59:26;100786.91;;;7.47;92.12
69402;BME280;56589;51.992;5.924;2023-12-20T12:01:54;100776.47;;;7.47;91.68
69402;BME280;56589;51.992;5.924;2023-12-20T12:04:20;100782.34;;;7.51;91.88
69402;BME280;56589;51.992;5.924;2023-12-20T12:06:46;100781.28;;;7.55;91.51
69402;BME280;56589;51.992;5.924;2023-12-20T12:09:12;100776.72;;;7.58;91.65
69402;BME280;56589;51.992;5.924;2023-12-20T12:11:37;100771.50;;;7.58;91.23
69402;BME280;56589;51.992;5.924;2023-12-20T12:14:03;100764.44;;;7.60;91.13
69402;BME280;56589;51.992;5.924;2023-12-20T12:16:30;100766.13;;;7.61;90.91
69402;BME280;56589;51.992;5.924;2023-12-20T12:18:59;100759.03;;;7.64;90.90
69402;BME280;56589;51.992;5.924;2023-12-20T12:21:24;100762.44;;;7.66;90.16
69402;BME280;56589;51.992;5.924;2023-12-20T12:23:50;100758.06;;;7.66;89.86
69402;BME280;56589;51.992;5.924;2023-12-20T12:26:16;100756.94;;;7.70;90.39
69402;BME280;56589;51.992;5.924;2023-12-20T12:28:42;100758.56;;;7.73;90.07
69402;BME280;56589;51.992;5.924;2023-12-20T12:31:09;100751.41;;;7.76;89.29
69402;BME280;56589;51.992;5.924;2023-12-20T12:33:38;100757.41;;;7.78;89.60
69402;BME280;56589;51.992;5.924;2023-12-20T12:36:08;100752.94;;;7.80;89.38
69402;BME280;56589;51.992;5.924;2023-12-20T12:38:34;100739.78;;;7.82;89.00
69402;BME280;56589;51.992;5.924;2023-12-20T12:41:00;100736.00;;;7.87;89.01
69402;BME280;56589;51.992;5.924;2023-12-20T12:43:26;100735.75;;;7.92;89.04
69402;BME280;56589;51.992;5.924;2023-12-20T12:45:52;100724.22;;;7.96;88.48
69402;BME280;56589;51.992;5.924;2023-12-20T12:48:18;100717.28;;;7.95;88.17
69402;BME280;56589;51.992;5.924;2023-12-20T12:50:45;100733.91;;;7.94;88.18
69402;BME280;56589;51.992;5.924;2023-12-20T12:53:14;100722.69;;;7.92;88.05
69402;BME280;56589;51.992;5.924;2023-12-20T12:55:40;100727.16;;;7.90;88.03
69402;BME280;56589;51.992;5.924;2023-12-20T12:58:05;100724.59;;;7.88;88.26